Time;durP1;ratioP1;P1;durP2;ratioP2;P2;SDS_P1;SDS_P2;PMS_P1;PMS_P2;Temp;Humidity;BMP_temperature;BMP_pressure;BME280_temperature;BME280_humidity;BME280_pressure;Samples;Min_cycle;Max_cycle;Signal;HPM_P1;HPM_P2
2024/03/28 00:01:10;;;;;;;3.75;2.10;;;4.80;99.90;;;3.95;100.00;97519.13;4199794;28;20028;-75
2024/03/28 00:03:10;;;;;;;5.15;0.90;;;4.80;99.90;;;3.96;100.00;97512.94;4218316;28;20028;-75
2024/03/28 00:05:11;;;;;;;2.58;0.75;;;4.80;99.90;;;4.01;100.00;97527.97;4218439;28;20043;-75
2024/03/28 00:07:12;;;;;;;2.67;1.23;;;4.80;99.90;;;4.02;100.00;97525.19;4218440;28;20145;-75
2024/03/28 00:09:13;;;;;;;2.60;1.13;;;4.80;99.90;;;4.07;100.00;97520.19;4200467;28;20025;-75
2024/03/28 00:11:14;;;;;;;4.93;1.20;;;4.80;99.90;;;4.12;100.00;97517.03;4200362;28;20021;-75
2024/03/28 00:13:15;;;;;;;3.67;1.30;;;4.90;99.90;;;4.21;100.00;97502.81;4200484;28;20033;-75
2024/03/28 00:15:16;;;;;;;4.97;1.25;;;5.00;99.90;;;4.26;100.00;97503.84;4218297;28;20085;-75
2024/03/28 00:17:17;;;;;;;5.50;1.95;;;5.00;99.90;;;4.19;100.00;97499.59;4218085;28;20491;-75
2024/03/28 00:19:19;;;;;;;7.40;3.25;;;4.90;99.90;;;4.10;100.00;97511.19;4200391;28;20036;-75
2024/03/28 00:21:20;;;;;;;6.07;3.08;;;4.90;99.90;;;4.00;100.00;97511.56;4212289;28;20012;-75
2024/03/28 00:23:20;;;;;;;13.05;1.70;;;4.80;99.90;;;3.95;100.00;97516.53;4200256;28;20028;-75
2024/03/28 00:25:21;;;;;;;2.45;1.20;;;4.80;99.90;;;3.97;100.00;97524.97;4218233;28;20016;-74
2024/03/28 00:27:22;;;;;;;5.40;2.00;;;4.80;99.90;;;3.96;100.00;97519.94;4218127;28;20028;-74
2024/03/28 00:29:23;;;;;;;3.08;1.67;;;4.80;99.90;;;3.92;100.00;97535.97;4216880;28;20094;-74
2024/03/28 00:31:25;;;;;;;3.85;1.63;;;4.80;99.90;;;3.93;100.00;97526.34;4218060;28;20044;-74
2024/03/28 00:33:25;;;;;;;1.92;1.25;;;4.80;99.90;;;3.96;100.00;97525.16;4218267;28;20032;-75
2024/03/28 00:35:26;;;;;;;6.20;2.50;;;4.80;99.90;;;4.02;100.00;97535.63;4216623;28;20055;-75
2024/03/28 00:37:27;;;;;;;13.38;5.28;;;4.80;99.90;;;4.10;100.00;97547.69;4218152;28;20402;-75
2024/03/28 00:39:28;;;;;;;17.25;7.05;;;4.90;99.90;;;4.13;100.00;97561.16;4218151;28;20486;-74
2024/03/28 00:41:29;;;;;;;12.50;6.40;;;4.90;99.90;;;4.19;100.00;97560.38;4218197;28;20031;-74
2024/03/28 00:43:30;;;;;;;19.92;11.90;;;5.00;99.90;;;4.25;100.00;97556.19;4216804;28;20453;-74
2024/03/28 00:45:30;;;;;;;23.27;13.88;;;5.00;99.90;;;4.35;100.00;97556.66;4200030;28;20044;-75
2024/03/28 00:47:31;;;;;;;22.55;11.82;;;5.10;99.90;;;4.42;100.00;97553.06;4218096;28;20024;-75
2024/03/28 00:49:32;;;;;;;15.85;8.35;;;5.10;99.90;;;4.52;100.00;97565.75;4218128;28;20035;-75
2024/03/28 00:51:33;;;;;;;7.85;5.22;;;5.20;99.90;;;4.62;100.00;97581.88;4200190;28;20072;-75
2024/03/28 00:53:34;;;;;;;8.27;4.32;;;5.40;99.90;;;4.73;100.00;97583.09;4218165;28;20043;-75
2024/03/28 00:55:34;;;;;;;8.70;2.33;;;5.40;99.90;;;4.84;100.00;97613.84;4218039;28;20036;-75
2024/03/28 00:57:35;;;;;;;4.20;1.40;;;5.50;99.90;;;4.97;100.00;97595.63;4218062;28;20042;-74
2024/03/28 00:59:36;;;;;;;3.95;1.20;;;5.70;99.90;;;5.03;100.00;97615.72;4217911;28;20038;-74
2024/03/28 01:01:37;;;;;;;5.75;1.70;;;5.80;99.90;;;5.11;100.00;97619.97;4199694;28;20036;-75
2024/03/28 01:03:38;;;;;;;7.38;0.95;;;5.80;99.90;;;5.13;100.00;97628.41;4218039;28;20020;-75
2024/03/28 01:05:40;;;;;;;7.28;1.20;;;5.90;99.90;;;5.19;100.00;97628.44;4217949;28;20036;-74
2024/03/28 01:07:41;;;;;;;7.28;1.13;;;5.90;99.90;;;5.34;100.00;97642.13;4217908;28;20028;-74
2024/03/28 01:09:42;;;;;;;9.65;1.40;;;6.00;99.90;;;5.32;100.00;97648.53;4217783;28;20028;-74
2024/03/28 01:11:43;;;;;;;6.43;1.27;;;6.00;99.90;;;5.37;100.00;97652.19;4217981;28;20028;-75
2024/03/28 01:13:44;;;;;;;6.55;1.40;;;6.10;99.90;;;5.31;100.00;97647.75;4201247;28;20124;-74
2024/03/28 01:15:44;;;;;;;7.13;0.90;;;6.10;99.90;;;5.31;100.00;97639.91;4220610;28;20073;-74
2024/03/28 01:17:46;;;;;;;4.00;0.80;;;6.10;99.90;;;5.27;100.00;97636.09;4222885;28;20106;-74
2024/03/28 01:19:47;;;;;;;3.38;1.02;;;6.00;99.90;;;5.21;100.00;97615.97;4220855;28;20092;-74
2024/03/28 01:21:48;;;;;;;4.43;0.85;;;6.00;99.90;;;5.24;100.00;97620.81;4211140;28;20036;-74
2024/03/28 01:23:49;;;;;;;3.42;1.00;;;6.00;99.90;;;5.20;100.00;97619.56;4216997;28;20020;-74
2024/03/28 01:25:50;;;;;;;2.28;1.17;;;6.00;99.90;;;5.21;100.00;97620.38;4202663;28;20032;-74
2024/03/28 01:27:51;;;;;;;4.50;0.93;;;6.00;99.90;;;5.23;100.00;97618.38;4220757;28;20024;-74
2024/03/28 01:29:52;;;;;;;6.45;1.17;;;6.00;99.90;;;5.25;100.00;97616.38;4202584;28;20030;-74
2024/03/28 01:31:53;;;;;;;5.55;1.10;;;6.00;99.90;;;5.27;100.00;97620.41;4202477;28;20521;-75
2024/03/28 01:33:54;;;;;;;7.38;1.90;;;6.00;99.90;;;5.24;100.00;97620.00;4220492;28;20036;-74
2024/03/28 01:35:55;;;;;;;5.53;1.13;;;6.00;99.90;;;5.21;100.00;97617.78;4220323;28;20056;-74
2024/03/28 01:37:56;;;;;;;8.38;1.95;;;6.00;99.90;;;5.13;100.00;97605.72;4220390;28;20032;-74
2024/03/28 01:39:57;;;;;;;5.55;0.98;;;5.90;99.90;;;5.15;100.00;97622.00;4202477;28;20028;-74
2024/03/28 01:41:58;;;;;;;8.10;1.00;;;5.90;99.90;;;5.18;100.00;97620.78;4220325;28;20028;-74
2024/03/28 01:43:59;;;;;;;3.50;0.77;;;6.00;99.90;;;5.22;100.00;97635.88;4202679;28;20032;-75
2024/03/28 01:46:01;;;;;;;4.70;1.23;;;6.00;99.90;;;5.26;100.00;97644.91;4220157;28;20028;-75
2024/03/28 01:48:02;;;;;;;3.08;1.02;;;6.00;99.90;;;5.28;100.00;97629.88;4220368;28;20024;-74
2024/03/28 01:50:04;;;;;;;5.45;1.20;;;6.00;99.90;;;5.33;100.00;97626.63;4202248;28;20558;-75
2024/03/28 01:52:05;;;;;;;11.18;1.98;;;6.10;99.90;;;5.32;100.00;97636.28;4202343;28;20408;-74
2024/03/28 01:54:08;;;;;;;5.18;0.93;;;6.10;99.90;;;5.28;100.00;97642.94;4202390;28;20039;-75
2024/03/28 01:56:09;;;;;;;7.75;0.82;;;6.10;99.90;;;5.28;100.00;97642.94;4202425;28;20511;-75
2024/03/28 01:58:11;;;;;;;5.07;1.27;;;6.00;99.90;;;5.33;100.00;97650.16;4202087;28;20032;-74
2024/03/28 02:00:13;;;;;;;6.50;1.02;;;6.00;99.90;;;5.32;100.00;97645.94;4202165;28;20086;-74
2024/03/28 02:02:15;;;;;;;2.72;0.95;;;6.10;99.90;;;5.34;100.00;97647.38;4193188;28;20031;-75
2024/03/28 02:04:16;;;;;;;1.90;0.85;;;6.10;99.90;;;5.42;100.00;97648.97;4215738;28;20028;-75
2024/03/28 02:06:17;;;;;;;4.65;0.80;;;6.20;99.90;;;5.44;100.00;97644.34;4219610;28;20025;-75
2024/03/28 02:08:18;;;;;;;2.83;0.55;;;6.20;99.90;;;5.46;100.00;97642.34;4220122;28;20028;-74
2024/03/28 02:10:21;;;;;;;3.88;0.60;;;6.20;99.90;;;5.49;100.00;97648.00;4202117;28;20024;-75
2024/03/28 02:12:21;;;;;;;1.70;0.40;;;6.30;99.90;;;5.50;100.00;97660.03;4202263;28;20016;-75
2024/03/28 02:14:22;;;;;;;8.23;0.80;;;6.30;99.90;;;5.51;100.00;97661.66;4219814;28;20053;-75
2024/03/28 02:16:23;;;;;;;4.47;1.10;;;6.30;99.90;;;5.50;100.00;97674.91;4219663;28;20079;-75
2024/03/28 02:18:24;;;;;;;2.13;0.50;;;6.30;99.90;;;5.34;100.00;97675.31;4219896;28;20031;-75
2024/03/28 02:20:26;;;;;;;2.53;0.65;;;6.20;99.90;;;5.29;100.00;97654.97;4219874;28;20032;-75
2024/03/28 02:22:26;;;;;;;2.85;0.50;;;6.10;99.90;;;5.26;100.00;97665.00;4204415;28;20030;-74
2024/03/28 02:24:29;;;;;;;3.53;0.73;;;6.00;99.90;;;5.20;100.00;97690.13;4219259;28;20016;-74
2024/03/28 02:26:30;;;;;;;3.90;0.50;;;6.00;99.90;;;5.18;100.00;97689.53;4219582;28;20020;-75
2024/03/28 02:28:35;;;;;;;1.60;0.52;;;6.00;99.90;;;5.24;100.00;97677.47;4219827;28;20027;-74
2024/03/28 02:30:35;;;;;;;2.20;0.93;;;6.00;99.90;;;5.32;100.00;97670.25;4201473;28;20116;-74
2024/03/28 02:32:36;;;;;;;6.60;0.70;;;6.00;99.90;;;5.36;100.00;97671.50;4201816;28;20040;-75
2024/03/28 02:34:37;;;;;;;5.45;1.13;;;6.00;99.90;;;5.29;100.00;97688.94;4201923;28;20032;-74
2024/03/28 02:36:38;;;;;;;7.40;0.85;;;6.00;99.90;;;5.26;100.00;97685.91;4219363;28;20062;-75
2024/03/28 02:38:39;;;;;;;3.42;0.70;;;6.00;99.90;;;5.12;100.00;97685.09;4219262;28;20081;-75
2024/03/28 02:40:40;;;;;;;1.48;0.60;;;5.90;99.90;;;5.01;100.00;97691.69;4201678;28;20021;-75
2024/03/28 02:42:41;;;;;;;3.45;0.47;;;5.90;99.90;;;5.03;100.00;97689.69;4219546;28;20020;-74
2024/03/28 02:44:41;;;;;;;4.38;1.05;;;5.80;99.90;;;4.96;100.00;97696.66;4219656;28;20024;-75
2024/03/28 02:46:42;;;;;;;1.95;0.40;;;5.70;99.90;;;4.99;100.00;97675.38;4219076;28;20024;-75
2024/03/28 02:48:43;;;;;;;2.90;0.57;;;5.70;99.90;;;4.97;100.00;97669.56;4219525;28;20035;-74
2024/03/28 02:50:44;;;;;;;3.90;0.47;;;5.80;99.90;;;4.96;100.00;97674.97;4219636;28;20028;-75
2024/03/28 02:52:45;;;;;;;0.80;0.50;;;5.70;99.90;;;4.94;100.00;97683.00;4201351;28;20051;-75
2024/03/28 02:54:46;;;;;;;2.22;0.65;;;5.70;99.90;;;4.79;100.00;97684.13;4219293;28;20028;-75
2024/03/28 02:56:51;;;;;;;3.20;0.40;;;5.60;99.90;;;4.71;100.00;97695.56;4219172;28;20030;-75
2024/03/28 02:58:52;;;;;;;1.00;0.45;;;5.60;99.90;;;4.66;100.00;97697.94;4201316;28;20028;-75
2024/03/28 03:00:53;;;;;;;3.72;0.75;;;5.40;99.90;;;4.52;100.00;97690.22;4219004;28;20027;-74
2024/03/28 03:02:54;;;;;;;2.78;0.47;;;5.30;99.90;;;4.43;100.00;97707.84;4219150;28;20422;-75
2024/03/28 03:04:56;;;;;;;2.47;0.40;;;5.30;99.90;;;4.36;100.00;97704.41;4219234;28;20028;-75
2024/03/28 03:06:56;;;;;;;1.83;0.82;;;5.20;99.90;;;4.41;100.00;97710.66;4201086;28;20032;-75
2024/03/28 03:08:57;;;;;;;2.10;0.50;;;5.10;99.90;;;4.31;100.00;97715.38;4219137;28;20024;-75
2024/03/28 03:10:58;;;;;;;4.20;0.68;;;5.10;99.90;;;4.25;100.00;97713.53;4220571;28;20027;-75
2024/03/28 03:12:59;;;;;;;3.03;0.55;;;5.10;99.90;;;4.20;100.00;97710.69;4219129;28;20035;-75
2024/03/28 03:15:00;;;;;;;2.35;0.60;;;5.00;99.90;;;4.13;100.00;97709.84;4219213;28;20043;-74
2024/03/28 03:17:00;;;;;;;3.90;0.60;;;5.00;99.90;;;4.06;100.00;97708.19;4218664;28;20039;-75
2024/03/28 03:19:02;;;;;;;6.38;0.75;;;4.90;99.90;;;4.07;100.00;97718.41;4218880;28;20043;-75
2024/03/28 03:21:04;;;;;;;1.13;0.50;;;4.90;99.90;;;4.01;100.00;97716.56;4218830;28;20016;-75
2024/03/28 03:23:05;;;;;;;4.50;1.33;;;4.80;99.90;;;3.94;100.00;97702.69;4218971;28;20058;-74
2024/03/28 03:25:11;;;;;;;4.63;0.70;;;4.80;99.90;;;3.91;100.00;97697.84;4201118;28;20021;-75
2024/03/28 03:27:16;;;;;;;3.08;0.60;;;4.80;99.90;;;3.81;100.00;97689.53;4216201;28;20056;-74
2024/03/28 03:36:15;;;;;;;6.43;0.98;;;4.60;99.90;;;3.78;100.00;97710.75;4217905;28;20046;-74
2024/03/28 03:38:16;;;;;;;1.98;0.57;;;4.50;99.90;;;3.73;100.00;97716.50;4218647;28;20020;-74
2024/03/28 03:40:17;;;;;;;5.07;1.10;;;4.60;99.90;;;3.76;100.00;97717.97;4200650;28;20021;-74
2024/03/28 03:42:18;;;;;;;5.05;0.80;;;4.60;99.90;;;3.83;100.00;97724.03;4200689;28;20039;-74
2024/03/28 03:44:19;;;;;;;2.38;0.47;;;4.60;99.90;;;3.86;100.00;97723.66;4200700;28;20032;-75
2024/03/28 03:46:20;;;;;;;5.97;0.90;;;4.70;99.90;;;3.96;100.00;97734.59;4218358;28;20394;-74
2024/03/28 03:48:21;;;;;;;5.55;1.00;;;4.70;99.90;;;3.96;100.00;97723.34;4218508;28;20023;-74
2024/03/28 03:50:21;;;;;;;4.68;1.27;;;4.70;99.90;;;3.93;100.00;97719.31;4200750;28;20025;-75
2024/03/28 03:52:23;;;;;;;5.25;1.13;;;4.80;99.90;;;4.02;100.00;97728.63;4200717;28;20021;-75
2024/03/28 03:54:23;;;;;;;6.18;1.23;;;4.80;99.90;;;3.96;100.00;97723.34;4218546;28;20487;-75
2024/03/28 03:56:26;;;;;;;6.03;0.77;;;4.80;99.90;;;3.95;100.00;97738.16;4218390;28;20032;-75
2024/03/28 03:58:27;;;;;;;5.53;0.90;;;4.80;99.90;;;3.95;100.00;97737.34;4218454;28;20024;-75
2024/03/28 04:00:28;;;;;;;4.85;1.00;;;4.80;99.90;;;3.93;100.00;97734.97;4200384;28;20416;-74
2024/03/28 04:02:29;;;;;;;10.25;1.20;;;4.80;99.90;;;3.90;100.00;97724.91;4200120;28;20028;-74
2024/03/28 04:04:30;;;;;;;6.95;1.23;;;4.80;99.90;;;3.89;100.00;97728.50;4218275;28;20438;-74
2024/03/28 04:06:31;;;;;;;4.43;0.90;;;4.70;99.90;;;3.84;100.00;97725.66;4200262;28;20111;-74
2024/03/28 04:08:32;;;;;;;6.25;1.38;;;4.70;99.90;;;3.81;100.00;97721.63;4209247;28;20054;-74
2024/03/28 04:10:33;;;;;;;7.32;0.80;;;4.60;99.90;;;3.81;100.00;97716.41;4218615;28;20031;-75
2024/03/28 04:12:34;;;;;;;8.27;1.10;;;4.70;99.90;;;3.81;100.00;97712.97;4218393;28;20027;-74
2024/03/28 04:14:35;;;;;;;6.68;1.13;;;4.70;99.90;;;3.97;100.00;97725.78;4200550;28;20032;-74
2024/03/28 04:16:35;;;;;;;9.30;1.42;;;4.80;99.90;;;4.13;100.00;97724.69;4205137;28;20028;-74
2024/03/28 04:18:36;;;;;;;5.85;1.08;;;4.80;99.90;;;4.18;100.00;97727.53;4218253;28;20035;-74
2024/03/28 04:20:40;;;;;;;5.65;1.88;;;5.00;99.90;;;4.22;100.00;97721.75;4218209;28;20028;-74
2024/03/28 04:22:41;;;;;;;6.10;1.25;;;5.00;99.90;;;4.32;100.00;97730.06;4187201;28;20023;-74
2024/03/28 04:24:41;;;;;;;6.68;1.52;;;5.10;99.90;;;4.40;100.00;97742.94;4208798;28;20032;-74
2024/03/28 04:26:43;;;;;;;6.18;0.90;;;5.20;99.90;;;4.55;100.00;97749.88;4218325;28;20012;-74
2024/03/28 04:28:44;;;;;;;3.33;0.77;;;5.30;99.90;;;4.59;100.00;97751.13;4218324;28;20032;-74
2024/03/28 04:30:45;;;;;;;6.07;1.23;;;5.40;99.90;;;4.69;100.00;97768.03;4218142;28;20407;-74
2024/03/28 04:32:46;;;;;;;6.05;1.00;;;5.50;99.90;;;4.69;100.00;97781.09;4218264;28;20032;-74
2024/03/28 04:34:48;;;;;;;7.15;1.50;;;5.50;99.90;;;4.72;100.00;97785.16;4218299;28;20047;-74
2024/03/28 04:36:49;;;;;;;6.80;1.85;;;5.50;99.90;;;4.68;100.00;97795.16;4200051;28;20052;-75
2024/03/28 04:38:50;;;;;;;10.52;1.42;;;5.50;99.90;;;4.67;100.00;97784.91;4217959;28;20525;-74
2024/03/28 04:40:51;;;;;;;10.02;1.23;;;5.50;99.90;;;4.80;100.00;97800.66;4218208;28;20024;-74
2024/03/28 04:42:52;;;;;;;6.70;1.15;;;5.60;99.90;;;4.91;100.00;97813.19;4218195;28;20024;-74
2024/03/28 04:44:52;;;;;;;7.45;1.60;;;5.60;99.90;;;4.97;100.00;97800.16;4218111;28;20035;-75
2024/03/28 04:46:55;;;;;;;8.93;1.60;;;5.70;99.90;;;5.01;100.00;97800.59;4217766;28;20031;-75
2024/03/28 04:48:56;;;;;;;10.18;1.30;;;5.70;99.90;;;5.10;100.00;97822.94;4203572;28;20047;-75
2024/03/28 04:50:58;;;;;;;11.55;1.63;;;5.80;99.90;;;5.13;100.00;97796.44;4203299;28;20516;-75
2024/03/28 04:52:59;;;;;;;7.15;1.45;;;5.80;99.90;;;5.15;100.00;97799.66;4203459;28;20032;-74
2024/03/28 04:55:00;;;;;;;7.28;1.15;;;5.90;99.90;;;5.14;100.00;97803.25;4221119;28;20024;-74
2024/03/28 04:57:00;;;;;;;4.78;0.90;;;5.90;99.90;;;5.15;100.00;97809.28;4186430;28;20033;-74
2024/03/28 04:59:01;;;;;;;4.13;0.82;;;5.90;99.90;;;5.13;100.00;97800.84;4202925;28;20021;-74
2024/03/28 05:01:02;;;;;;;6.35;0.85;;;5.90;99.90;;;5.08;100.00;97793.56;4216460;28;20437;-74
2024/03/28 05:03:04;;;;;;;5.75;2.05;;;5.90;99.90;;;5.08;100.00;97783.13;4221006;28;20046;-74
2024/03/28 05:05:06;;;;;;;11.20;1.02;;;5.90;99.90;;;5.02;100.00;97770.84;4226489;28;20020;-74
2024/03/28 05:07:07;;;;;;;6.45;0.93;;;5.80;99.90;;;4.99;100.00;97773.84;4204508;28;20114;-75
2024/03/28 05:09:08;;;;;;;4.75;1.00;;;5.80;99.90;;;4.98;100.00;97767.03;4203110;28;20067;-74
2024/03/28 05:11:09;;;;;;;4.63;0.65;;;5.70;99.90;;;4.93;100.00;97772.81;4220942;28;20028;-74
2024/03/28 05:13:10;;;;;;;2.40;0.65;;;5.70;99.90;;;4.84;100.00;97763.50;4220997;28;20055;-75
2024/03/28 05:15:11;;;;;;;4.38;1.30;;;5.60;99.90;;;4.75;100.00;97762.03;4220774;28;20028;-74
2024/03/28 05:17:12;;;;;;;5.90;0.70;;;5.60;99.90;;;4.71;100.00;97758.22;4220830;28;20039;-74
2024/03/28 05:19:13;;;;;;;5.57;0.60;;;5.50;99.90;;;4.73;100.00;97769.28;4220692;28;20107;-74
2024/03/28 05:21:14;;;;;;;3.47;0.82;;;5.50;99.90;;;4.75;100.00;97763.88;4216065;28;20491;-74
2024/03/28 05:23:15;;;;;;;6.00;0.63;;;5.50;99.90;;;4.77;100.00;97764.47;4212328;28;20023;-74
2024/03/28 05:25:15;;;;;;;2.58;0.85;;;5.60;99.90;;;4.80;100.00;97769.31;4220887;28;20035;-74
2024/03/28 05:27:16;;;;;;;2.53;0.80;;;5.60;99.90;;;4.80;100.00;97775.34;4202644;28;20035;-74
2024/03/28 05:29:17;;;;;;;6.57;1.13;;;5.60;99.90;;;4.87;100.00;97780.59;4220779;28;20036;-74
2024/03/28 05:31:18;;;;;;;6.55;0.85;;;5.60;99.90;;;4.84;100.00;97768.72;4220477;28;20101;-74
2024/03/28 05:33:19;;;;;;;5.68;1.25;;;5.60;99.90;;;4.88;100.00;97779.59;4220697;28;20161;-75
2024/03/28 05:35:20;;;;;;;3.33;0.45;;;5.70;99.90;;;4.92;100.00;97797.31;4219623;28;20524;-74
2024/03/28 05:37:21;;;;;;;5.68;1.02;;;5.70;99.90;;;4.94;100.00;97807.56;4220082;28;20025;-74
2024/03/28 05:39:22;;;;;;;4.13;1.38;;;5.70;99.90;;;5.01;100.00;97881.56;4202448;28;20534;-75
2024/03/28 05:41:23;;;;;;;8.35;1.83;;;5.80;99.90;;;5.08;100.00;97908.53;4220549;28;20024;-75
2024/03/28 05:43:24;;;;;;;7.85;1.48;;;5.80;99.90;;;5.03;100.00;97879.56;4202344;28;20396;-75
2024/03/28 05:45:25;;;;;;;6.05;1.00;;;5.80;99.90;;;5.09;100.00;97862.31;4220241;28;20039;-74
2024/03/28 05:47:26;;;;;;;4.45;2.13;;;5.80;99.90;;;5.05;100.00;97840.97;4220478;28;20028;-74
2024/03/28 05:49:26;;;;;;;4.25;1.83;;;5.80;99.90;;;5.05;100.00;97804.41;4220394;28;20038;-75
2024/03/28 05:51:27;;;;;;;8.02;1.20;;;5.80;99.90;;;5.09;100.00;97810.88;4220331;28;20490;-74
2024/03/28 05:53:28;;;;;;;3.13;0.80;;;5.80;99.90;;;5.11;100.00;97813.31;4202276;28;20024;-74
2024/03/28 05:55:29;;;;;;;4.20;1.02;;;5.80;99.90;;;5.05;100.00;97801.81;4220273;28;20028;-74
2024/03/28 05:57:30;;;;;;;3.55;1.00;;;5.80;99.90;;;5.03;100.00;97803.81;4220325;28;20028;-74
2024/03/28 05:59:30;;;;;;;6.50;1.58;;;5.80;99.90;;;5.03;100.00;97811.66;4219447;28;20525;-74
2024/03/28 06:01:32;;;;;;;4.40;0.88;;;5.80;99.90;;;5.03;100.00;97806.41;4219841;28;20399;-74
2024/03/28 06:03:33;;;;;;;6.65;1.15;;;5.80;99.90;;;5.07;100.00;97797.22;4202305;28;20024;-74
2024/03/28 06:05:34;;;;;;;3.70;0.70;;;5.80;99.90;;;5.11;100.00;97790.56;4220001;28;20024;-74
2024/03/28 06:07:34;;;;;;;10.80;1.88;;;5.90;99.90;;;5.12;100.00;97789.59;4201863;28;20024;-75
2024/03/28 06:09:35;;;;;;;5.85;1.15;;;5.90;99.90;;;5.15;100.00;97793.63;4202022;28;20027;-74
2024/03/28 06:11:36;;;;;;;4.07;1.00;;;5.90;99.90;;;5.16;100.00;97796.06;4220130;28;20024;-75
2024/03/28 06:13:37;;;;;;;4.95;1.23;;;6.00;99.90;;;5.18;100.00;97799.28;4220012;28;20081;-74
2024/03/28 06:15:38;;;;;;;4.28;1.13;;;6.00;99.90;;;5.23;100.00;97815.16;4219714;28;20028;-75
2024/03/28 06:17:39;;;;;;;7.97;1.05;;;6.00;99.90;;;5.21;100.00;97824.19;4219855;28;20394;-74
2024/03/28 06:19:40;;;;;;;6.47;1.02;;;6.00;99.90;;;5.19;100.00;97828.81;4219540;28;20031;-74
2024/03/28 06:21:43;;;;;;;7.40;1.70;;;5.90;99.90;;;5.22;100.00;97852.78;4219824;28;20032;-74
2024/03/28 06:23:44;;;;;;;8.30;1.00;;;6.00;99.90;;;5.27;100.00;97866.06;4220045;28;20024;-74
2024/03/28 06:25:45;;;;;;;5.15;1.98;;;6.00;99.90;;;5.37;100.00;97839.56;4219642;28;20406;-74
2024/03/28 06:27:46;;;;;;;8.35;1.80;;;6.10;99.90;;;5.46;100.00;97833.19;4201684;28;20027;-74
2024/03/28 06:29:50;;;;;;;6.30;1.10;;;6.10;99.90;;;5.57;100.00;97835.22;4219813;28;20028;-74
2024/03/28 06:31:52;;;;;;;6.28;2.22;;;6.20;99.90;;;5.66;100.00;97834.06;4201970;28;20052;-74
2024/03/28 06:33:55;;;;;;;4.72;1.60;;;6.30;99.90;;;5.73;100.00;97831.47;4201857;28;20033;-74
2024/03/28 06:35:56;;;;;;;11.02;1.33;;;6.40;99.90;;;5.79;100.00;97843.78;4201065;28;20056;-74
2024/03/28 06:37:56;;;;;;;7.85;1.33;;;6.50;99.90;;;5.85;100.00;97906.59;4219674;28;20024;-74
2024/03/28 06:39:57;;;;;;;6.93;1.60;;;6.50;99.90;;;5.89;100.00;97865.16;4219466;28;20028;-73
2024/03/28 06:41:58;;;;;;;7.50;1.77;;;6.60;99.90;;;5.91;100.00;97839.63;4219586;28;20028;-75
2024/03/28 06:43:59;;;;;;;8.07;1.13;;;6.60;99.90;;;5.93;100.00;97842.84;4201606;28;20021;-74
2024/03/28 06:46:02;;;;;;;8.50;2.35;;;6.60;99.90;;;5.99;100.00;97844.66;4201123;28;20075;-75
2024/03/28 06:48:04;;;;;;;10.80;1.52;;;6.70;99.90;;;6.08;100.00;97840.84;4219634;28;20045;-74
2024/03/28 06:50:05;;;;;;;10.77;2.47;;;6.70;99.90;;;6.13;100.00;97831.41;4201567;28;20068;-75
2024/03/28 06:52:07;;;;;;;11.75;1.55;;;6.80;99.90;;;6.18;100.00;97822.97;4201492;28;20021;-74
2024/03/28 06:54:07;;;;;;;13.52;1.83;;;6.80;99.90;;;6.24;100.00;97827.41;4219525;28;20385;-74
2024/03/28 06:56:09;;;;;;;10.85;1.27;;;6.90;99.90;;;6.38;100.00;97813.31;4219227;28;20031;-74
2024/03/28 06:58:09;;;;;;;7.47;1.20;;;7.00;99.90;;;6.49;100.00;97820.56;4201407;28;20035;-74
2024/03/28 07:00:12;;;;;;;7.47;2.72;;;7.10;99.90;;;6.56;100.00;97821.38;4219131;28;20032;-74
2024/03/28 07:02:12;;;;;;;11.23;2.00;;;7.20;99.90;;;6.65;100.00;97820.19;4207894;28;20016;-74
2024/03/28 07:04:13;;;;;;;13.27;1.38;;;7.30;99.90;;;6.67;100.00;97818.16;4205125;28;20027;-74
2024/03/28 07:06:14;;;;;;;10.52;1.50;;;7.30;99.90;;;6.71;100.00;97828.22;4219018;28;20023;-75
2024/03/28 07:08:15;;;;;;;11.75;1.45;;;7.30;99.90;;;6.71;100.00;97823.78;4219216;28;20069;-74
2024/03/28 07:10:16;;;;;;;7.03;1.27;;;7.40;99.90;;;6.70;100.00;97816.94;4219364;28;20057;-74
2024/03/28 07:12:17;;;;;;;7.97;1.80;;;7.40;99.90;;;6.70;100.00;97819.56;4201263;28;20431;-74
2024/03/28 07:14:18;;;;;;;8.82;1.30;;;7.40;99.90;;;6.65;100.00;97825.41;4200940;28;20043;-74
2024/03/28 07:16:19;;;;;;;5.85;1.42;;;7.30;99.90;;;6.61;100.00;97812.91;4200893;28;20028;-74
2024/03/28 07:18:20;;;;;;;11.02;1.30;;;7.30;99.90;;;6.56;100.00;97825.81;4218888;28;20024;-75
2024/03/28 07:20:21;;;;;;;8.15;1.50;;;7.30;99.90;;;6.53;100.00;97820.97;4218949;28;20047;-74
2024/03/28 07:22:22;;;;;;;6.93;1.35;;;7.30;99.90;;;6.56;100.00;97821.38;4205142;28;20025;-74
2024/03/28 07:24:23;;;;;;;10.35;2.03;;;7.30;99.90;;;6.63;100.00;97816.94;4219002;28;20089;-74
2024/03/28 07:26:24;;;;;;;6.68;1.73;;;7.40;99.90;;;6.69;100.00;97816.13;4196406;28;20028;-74
2024/03/28 07:28:25;;;;;;;8.13;1.67;;;7.50;99.90;;;6.89;100.00;97823.16;4199266;28;20123;-75
2024/03/28 07:30:26;;;;;;;6.88;1.00;;;7.60;99.90;;;7.08;100.00;97819.69;4199177;28;20028;-75
2024/03/28 07:32:26;;;;;;;6.20;1.33;;;7.80;99.90;;;7.30;100.00;97817.63;4217962;28;20125;-76
2024/03/28 07:34:27;;;;;;;12.55;2.05;;;8.00;99.90;;;7.57;100.00;97809.47;4217921;28;20035;-76
2024/03/28 07:36:28;;;;;;;12.38;2.05;;;8.20;99.90;;;7.85;100.00;97824.09;4217321;28;20603;-75
2024/03/28 07:38:29;;;;;;;12.35;2.47;;;8.50;99.90;;;8.14;100.00;97811.19;4217319;28;20437;-75
2024/03/28 07:40:31;;;;;;;12.63;2.72;;;8.70;99.90;;;8.33;100.00;97812.13;4218246;28;20044;-75
2024/03/28 07:42:32;;;;;;;9.00;2.28;;;9.00;99.90;;;8.48;100.00;97823.13;4218074;28;20020;-74
2024/03/28 07:44:33;;;;;;;19.15;2.95;;;9.10;99.90;;;8.66;100.00;97807.38;4200029;28;20051;-75
2024/03/28 07:46:34;;;;;;;20.38;3.08;;;9.30;99.90;;;8.81;100.00;97812.34;4199380;28;20016;-75
2024/03/28 07:48:35;;;;;;;13.48;2.65;;;9.40;99.90;;;8.81;100.00;97817.59;4187975;28;20052;-74
2024/03/28 07:50:37;;;;;;;14.65;2.63;;;9.50;99.90;;;8.69;100.00;97816.69;4207784;28;20027;-75
2024/03/28 07:52:38;;;;;;;14.65;2.95;;;9.40;99.90;;;8.71;100.00;97825.16;4217990;28;20513;-74
2024/03/28 07:54:40;;;;;;;23.20;5.05;;;9.40;99.90;;;8.62;100.00;97816.72;4216784;28;20028;-75
2024/03/28 07:56:41;;;;;;;20.90;3.47;;;9.30;99.90;;;8.60;100.00;97816.13;4198855;28;20016;-74
2024/03/28 07:58:42;;;;;;;20.60;3.90;;;9.30;99.90;;;8.75;100.00;97819.22;4199721;28;20074;-75
2024/03/28 08:00:43;;;;;;;16.67;4.60;;;9.40;99.90;;;8.94;100.00;97819.28;4199305;28;20122;-75
2024/03/28 08:02:45;;;;;;;18.65;3.80;;;9.60;99.90;;;9.09;100.00;97835.50;4217459;28;20387;-75
2024/03/28 08:04:46;;;;;;;22.85;3.83;;;9.70;99.90;;;9.09;100.00;97835.50;4199770;28;20021;-75
2024/03/28 08:06:47;;;;;;;21.02;3.60;;;9.70;99.90;;;8.90;100.00;97837.28;4199812;28;20541;-74
2024/03/28 08:08:49;;;;;;;19.40;2.80;;;9.60;99.90;;;8.74;100.00;97849.19;4217549;28;20447;-75
2024/03/28 08:10:50;;;;;;;21.13;4.38;;;9.50;99.90;;;8.76;100.00;97852.38;4217483;28;20052;-75
2024/03/28 08:12:51;;;;;;;24.58;4.03;;;9.50;99.90;;;8.94;100.00;97859.50;4199871;28;20028;-74
2024/03/28 08:14:52;;;;;;;26.13;4.07;;;9.60;99.90;;;9.28;100.00;97850.28;4200195;28;20024;-75
2024/03/28 08:16:52;;;;;;;23.08;3.92;;;9.80;99.90;;;9.44;100.00;97847.88;4217331;28;20028;-75
2024/03/28 08:18:53;;;;;;;19.85;3.33;;;10.00;99.90;;;9.67;100.00;97857.75;4216069;28;20033;-74
2024/03/28 08:20:57;;;;;;;20.33;3.88;;;10.20;99.90;;;9.75;100.00;97852.19;4215922;28;20028;-74
2024/03/28 08:22:57;;;;;;;22.42;3.75;;;10.30;99.90;;;9.92;100.00;97852.38;4208468;28;20035;-75
2024/03/28 08:24:58;;;;;;;17.55;2.88;;;10.50;99.90;;;10.10;100.00;97848.91;4221798;28;20039;-74
2024/03/28 08:26:59;;;;;;;16.02;2.90;;;10.70;99.90;;;10.32;100.00;97850.06;4221641;28;20020;-74
2024/03/28 08:29:00;;;;;;;16.10;3.30;;;10.80;99.90;;;10.51;100.00;97852.38;4186959;28;20512;-75
2024/03/28 08:31:06;;;;;;;19.23;3.53;;;11.00;99.90;;;10.57;100.00;97870.97;4221495;28;20028;-75
2024/03/28 08:33:07;;;;;;;17.98;3.60;;;11.10;99.90;;;10.79;100.00;97858.84;4204367;28;20029;-75
2024/03/28 08:35:13;;;;;;;16.40;4.35;;;11.30;99.90;;;11.03;100.00;97863.94;4221416;28;20084;-75
2024/03/28 08:37:14;;;;;;;19.58;2.85;;;11.50;99.90;;;10.97;100.00;97878.03;4221432;28;20032;-75
2024/03/28 08:39:15;;;;;;;18.60;4.10;;;11.60;99.90;;;10.71;100.00;97861.84;4221252;28;20036;-75